createdAt,value
2022-11-08T00:00:28.839Z,84.39
2022-11-08T00:02:58.542Z,84.34
2022-11-08T00:05:44.944Z,84.37
2022-11-08T00:08:31.168Z,84.42
2022-11-08T00:11:22.609Z,84.40
2022-11-08T00:13:59.851Z,84.54
2022-11-08T00:16:28.843Z,84.68
2022-11-08T00:18:56.745Z,84.69
2022-11-08T00:21:24.934Z,84.86
2022-11-08T00:23:53.350Z,84.78
2022-11-08T00:26:21.111Z,84.86
2022-11-08T00:28:48.960Z,84.93
2022-11-08T00:31:16.860Z,85.03
2022-11-08T00:33:44.776Z,85.11
2022-11-08T00:36:12.601Z,85.13
2022-11-08T00:38:44.601Z,85.20
2022-11-08T00:41:12.560Z,85.30
2022-11-08T00:43:40.518Z,85.40
2022-11-08T00:46:08.540Z,85.46
2022-11-08T00:48:36.507Z,85.53
2022-11-08T00:51:07.188Z,85.58
2022-11-08T00:53:37.908Z,85.69
2022-11-08T00:56:12.513Z,85.71
2022-11-08T00:58:43.472Z,85.74
2022-11-08T01:01:17.909Z,85.78
2022-11-08T01:03:47.573Z,85.82
2022-11-08T01:06:19.210Z,85.87
2022-11-08T01:08:49.413Z,85.87
2022-11-08T01:11:21.056Z,85.88
2022-11-08T01:13:50.592Z,85.88
2022-11-08T01:16:22.935Z,85.95
2022-11-08T01:18:53.305Z,85.95
2022-11-08T01:21:22.108Z,86.00
2022-11-08T01:23:50.063Z,86.07
2022-11-08T01:26:21.898Z,86.11
2022-11-08T01:28:49.863Z,86.17
2022-11-08T01:31:22.056Z,86.15
2022-11-08T01:33:51.823Z,86.17
2022-11-08T01:36:25.472Z,86.12
2022-11-08T01:38:54.307Z,86.13
2022-11-08T01:41:24.760Z,86.13
2022-11-08T01:43:58.575Z,86.11
2022-11-08T01:46:45.588Z,86.11
2022-11-08T01:49:33.805Z,86.12
2022-11-08T01:52:10.245Z,86.15
2022-11-08T01:54:43.676Z,86.24
2022-11-08T01:57:16.660Z,86.30
2022-11-08T01:59:47.237Z,86.35
2022-11-08T02:02:15.664Z,86.41
2022-11-08T02:04:44.365Z,86.44
2022-11-08T02:07:14.010Z,86.42
2022-11-08T02:09:45.040Z,86.47
2022-11-08T02:12:14.979Z,86.50
2022-11-08T02:14:43.008Z,86.52
2022-11-08T02:17:11.510Z,86.51
2022-11-08T02:19:46.110Z,86.45
2022-11-08T02:22:21.885Z,86.45
2022-11-08T02:24:49.709Z,86.44
2022-11-08T02:27:17.528Z,86.40
2022-11-08T02:29:45.828Z,86.39
2022-11-08T02:32:14.915Z,86.41
2022-11-08T02:34:47.936Z,86.39
2022-11-08T02:37:18.669Z,86.39
2022-11-08T02:39:47.471Z,86.45
2022-11-08T02:42:19.445Z,86.50
2022-11-08T02:44:47.668Z,86.60
2022-11-08T02:47:16.128Z,86.64
2022-11-08T02:49:44.066Z,86.66
2022-11-08T02:52:11.869Z,86.48
2022-11-08T02:54:39.762Z,86.52
2022-11-08T02:57:07.894Z,86.45
2022-11-08T02:59:35.751Z,86.56
2022-11-08T03:02:03.944Z,86.60
2022-11-08T03:04:32.002Z,86.55
2022-11-08T03:06:59.963Z,86.61
2022-11-08T03:09:27.846Z,86.76
2022-11-08T03:11:59.876Z,86.83
2022-11-08T03:14:39.776Z,86.92
2022-11-08T03:17:07.905Z,87.09
2022-11-08T03:19:46.717Z,87.01
2022-11-08T03:22:19.582Z,86.96
2022-11-08T03:24:47.299Z,87.04
2022-11-08T03:27:15.152Z,86.97
2022-11-08T03:29:43.123Z,87.12
2022-11-08T03:32:11.260Z,87.22
2022-11-08T03:34:39.109Z,87.28
2022-11-08T03:37:09.308Z,87.40
2022-11-08T03:39:37.343Z,87.48
2022-11-08T03:42:06.031Z,87.50
2022-11-08T03:44:34.099Z,87.57
2022-11-08T03:47:02.137Z,87.62
2022-11-08T03:49:29.781Z,87.66
2022-11-08T03:51:57.775Z,87.62
2022-11-08T03:54:25.628Z,87.78
2022-11-08T03:56:53.893Z,87.85
2022-11-08T03:59:21.940Z,87.87
2022-11-08T04:01:49.901Z,87.94
2022-11-08T04:04:18.103Z,88.07
2022-11-08T04:06:49.090Z,88.07
2022-11-08T04:09:21.362Z,88.07
2022-11-08T04:12:05.694Z,88.11
2022-11-08T04:14:51.860Z,88.10
2022-11-08T04:17:21.605Z,88.02
2022-11-08T04:20:07.664Z,88.22
2022-11-08T04:22:35.186Z,88.23
2022-11-08T04:25:03.092Z,88.33
2022-11-08T04:27:39.867Z,88.29
2022-11-08T04:30:06.320Z,88.43
2022-11-08T04:32:34.100Z,88.54
2022-11-08T04:35:02.176Z,88.57
2022-11-08T04:37:30.178Z,88.59
2022-11-08T04:39:58.458Z,88.58
2022-11-08T04:42:26.503Z,88.63
2022-11-08T04:44:54.480Z,88.59
2022-11-08T04:47:22.615Z,88.62
2022-11-08T04:49:51.245Z,88.75
2022-11-08T04:52:19.682Z,88.65
2022-11-08T04:54:47.485Z,88.59
2022-11-08T04:57:18.105Z,88.57
2022-11-08T04:59:50.636Z,88.66
2022-11-08T05:02:16.721Z,88.67
2022-11-08T05:04:47.051Z,88.71
2022-11-08T05:07:15.093Z,88.70
2022-11-08T05:09:42.784Z,88.64
2022-11-08T05:12:11.230Z,88.71
2022-11-08T05:14:38.882Z,88.62
2022-11-08T05:17:06.955Z,88.68
2022-11-08T05:19:52.992Z,88.81
2022-11-08T05:22:39.370Z,88.84
2022-11-08T05:25:08.178Z,88.82
2022-11-08T05:27:35.934Z,88.88
2022-11-08T05:30:05.519Z,88.86
2022-11-08T05:32:33.378Z,88.91
2022-11-08T05:35:01.315Z,88.87
2022-11-08T05:37:28.949Z,88.90
2022-11-08T05:39:56.467Z,88.93
2022-11-08T05:42:24.327Z,88.98
2022-11-08T05:44:52.095Z,88.96
2022-11-08T05:47:20.232Z,88.94
2022-11-08T05:49:47.843Z,88.93
2022-11-08T05:52:15.157Z,88.92
2022-11-08T05:54:42.615Z,88.92
2022-11-08T05:57:10.933Z,88.87
2022-11-08T05:59:39.060Z,88.84
2022-11-08T06:02:06.920Z,88.83
2022-11-08T06:04:34.799Z,88.83
2022-11-08T06:07:02.589Z,88.91
2022-11-08T06:09:30.524Z,88.82
2022-11-08T06:11:58.236Z,88.80
2022-11-08T06:14:26.003Z,88.84
2022-11-08T06:16:53.728Z,88.90
2022-11-08T06:19:21.523Z,88.86
2022-11-08T06:21:49.357Z,88.85
2022-11-08T06:24:17.042Z,88.90
2022-11-08T06:26:44.724Z,88.84
2022-11-08T06:29:12.394Z,88.83
2022-11-08T06:31:43.069Z,88.86
2022-11-08T06:34:10.175Z,88.87
2022-11-08T06:36:38.034Z,88.80
2022-11-08T06:39:06.204Z,88.68
2022-11-08T06:41:34.381Z,88.60
2022-11-08T06:44:02.123Z,88.65
2022-11-08T06:46:29.806Z,88.59
2022-11-08T06:48:57.707Z,88.25
2022-11-08T06:51:25.529Z,88.19
2022-11-08T06:53:53.299Z,88.19
2022-11-08T06:56:21.168Z,88.13
2022-11-08T06:58:49.025Z,87.98
2022-11-08T07:01:16.849Z,87.87
2022-11-08T07:03:45.161Z,87.87
2022-11-08T07:06:12.907Z,87.93
2022-11-08T07:08:40.491Z,87.85
2022-11-08T07:11:08.800Z,87.77
2022-11-08T07:13:36.527Z,87.72
2022-11-08T07:16:04.728Z,87.76
2022-11-08T07:18:32.311Z,87.81
2022-11-08T07:21:01.627Z,87.91
2022-11-08T07:23:29.549Z,87.95
2022-11-08T07:26:07.771Z,88.13
2022-11-08T07:28:35.541Z,87.88
2022-11-08T07:31:04.790Z,87.38
2022-11-08T07:33:33.009Z,86.80
2022-11-08T07:36:00.914Z,86.48
2022-11-08T07:38:28.726Z,86.15
2022-11-08T07:40:59.511Z,85.76
2022-11-08T07:43:29.487Z,85.24
2022-11-08T07:46:01.701Z,85.16
2022-11-08T07:48:31.219Z,84.57
2022-11-08T07:50:59.386Z,84.62
2022-11-08T07:53:27.195Z,84.85
2022-11-08T07:55:55.094Z,84.77
2022-11-08T07:58:22.914Z,84.15
2022-11-08T08:00:51.202Z,83.84
2022-11-08T08:03:19.665Z,82.45
2022-11-08T08:05:52.944Z,82.26
2022-11-08T08:08:21.922Z,82.03
2022-11-08T08:10:49.878Z,81.69
2022-11-08T08:13:18.169Z,81.08
2022-11-08T08:15:46.444Z,79.88
2022-11-08T08:18:13.910Z,78.57
2022-11-08T08:20:41.907Z,78.12
2022-11-08T08:23:09.610Z,78.05
2022-11-08T08:25:37.387Z,77.21
2022-11-08T08:28:06.493Z,76.26
2022-11-08T08:30:34.438Z,75.39
2022-11-08T08:33:27.476Z,74.96
2022-11-08T08:35:39.644Z,74.85
2022-11-08T08:38:07.198Z,74.51
2022-11-08T08:40:35.003Z,72.73
2022-11-08T08:43:04.774Z,72.37
2022-11-08T08:45:34.379Z,71.59
2022-11-08T08:48:03.803Z,69.71
2022-11-08T08:50:32.472Z,67.81
2022-11-08T08:53:03.551Z,67.13
2022-11-08T08:55:34.243Z,67.41
2022-11-08T08:58:02.086Z,67.66
2022-11-08T09:03:05.034Z,66.69
2022-11-08T09:05:34.067Z,66.63
2022-11-08T09:08:03.221Z,65.04
2022-11-08T09:10:31.026Z,65.45
2022-11-08T09:13:01.276Z,63.14
2022-11-08T09:15:29.226Z,63.00
2022-11-08T09:17:57.937Z,60.86
2022-11-08T09:20:26.453Z,60.80
2022-11-08T09:22:54.385Z,62.62
2022-11-08T09:25:21.821Z,63.61
2022-11-08T09:27:49.538Z,64.45
2022-11-08T09:30:17.344Z,65.01
2022-11-08T09:33:01.951Z,64.70
2022-11-08T09:35:14.775Z,65.00
2022-11-08T09:37:48.751Z,65.49
2022-11-08T09:40:29.524Z,65.82
2022-11-08T09:43:31.333Z,65.90
2022-11-08T09:45:59.202Z,65.98
2022-11-08T09:48:37.192Z,66.16
2022-11-08T09:51:18.411Z,66.07
2022-11-08T09:54:03.683Z,65.78
2022-11-08T09:56:37.313Z,65.60
2022-11-08T09:59:25.168Z,65.66
2022-11-08T10:01:52.947Z,65.70
2022-11-08T10:04:26.658Z,65.24
2022-11-08T10:07:20.404Z,65.31
2022-11-08T10:10:07.747Z,65.34
2022-11-08T10:13:02.271Z,64.71
2022-11-08T10:15:59.776Z,64.20
2022-11-08T10:19:03.518Z,63.93
2022-11-08T10:21:59.413Z,64.03
2022-11-08T10:24:35.478Z,64.12
2022-11-08T10:27:07.977Z,61.36
2022-11-08T10:29:44.238Z,62.53
2022-11-08T10:32:19.446Z,62.27
2022-11-08T10:35:11.209Z,61.43
2022-11-08T10:37:45.065Z,60.52
2022-11-08T10:40:21.943Z,59.21
2022-11-08T10:43:10.080Z,59.62
2022-11-08T10:45:37.909Z,58.40
2022-11-08T10:48:06.402Z,58.14
2022-11-08T10:50:48.858Z,58.19
2022-11-08T10:53:21.970Z,57.20
2022-11-08T10:55:52.968Z,57.26
2022-11-08T10:58:31.166Z,56.07
2022-11-08T11:01:06.713Z,56.63
2022-11-08T11:03:34.211Z,57.24
2022-11-08T11:06:05.948Z,57.00
2022-11-08T11:08:34.229Z,57.22
2022-11-08T11:11:34.823Z,57.67
2022-11-08T11:14:22.324Z,58.15
2022-11-08T11:17:15.726Z,57.36
2022-11-08T11:19:53.442Z,56.34
2022-11-08T11:22:33.242Z,55.75
2022-11-08T11:25:09.808Z,56.33
2022-11-08T11:27:38.215Z,56.54
2022-11-08T11:30:30.081Z,57.29
2022-11-08T11:33:15.180Z,57.55
2022-11-08T11:36:17.250Z,58.02
2022-11-08T11:38:51.086Z,58.38
2022-11-08T11:41:30.294Z,58.68
2022-11-08T11:44:12.896Z,59.51
2022-11-08T11:47:14.749Z,59.84
2022-11-08T11:49:45.321Z,60.27
2022-11-08T11:52:18.857Z,60.45
2022-11-08T11:54:49.779Z,60.92
2022-11-08T11:57:43.138Z,61.48
2022-11-08T12:00:16.009Z,61.43
2022-11-08T12:03:01.754Z,61.44
2022-11-08T12:06:06.928Z,61.54
2022-11-08T12:08:49.435Z,61.78
2022-11-08T12:11:58.919Z,62.30
2022-11-08T12:14:56.668Z,62.55
2022-11-08T12:17:32.645Z,62.68
2022-11-08T12:20:32.632Z,63.00
2022-11-08T12:23:11.489Z,63.16
2022-11-08T12:25:53.771Z,63.34
2022-11-08T12:28:42.420Z,63.34
2022-11-08T12:31:52.136Z,63.48
2022-11-08T12:34:52.594Z,63.60
2022-11-08T12:37:41.060Z,63.78
2022-11-08T12:40:20.114Z,63.71
2022-11-08T12:43:27.930Z,63.60
2022-11-08T12:46:09.877Z,63.55
2022-11-08T12:49:02.948Z,63.43
2022-11-08T12:52:00.677Z,63.47
2022-11-08T12:54:57.222Z,63.35
2022-11-08T12:57:27.276Z,63.08
2022-11-08T13:00:10.323Z,62.91
2022-11-08T13:02:39.667Z,62.73
2022-11-08T13:05:28.689Z,62.93
2022-11-08T13:08:30.804Z,63.23
2022-11-08T13:11:10.051Z,63.28
2022-11-08T13:13:56.603Z,63.40
2022-11-08T13:16:38.673Z,63.20
2022-11-08T13:19:06.552Z,63.32
2022-11-08T13:21:39.109Z,63.19
2022-11-08T13:24:38.372Z,63.29
2022-11-08T13:26:42.698Z,63.34
2022-11-08T13:29:19.020Z,63.44
2022-11-08T13:32:07.027Z,63.47
2022-11-08T13:35:00.936Z,63.75
2022-11-08T13:37:45.823Z,63.63
2022-11-08T13:40:46.321Z,63.86
2022-11-08T13:43:25.785Z,63.82
2022-11-08T13:45:55.797Z,63.69
2022-11-08T13:48:37.218Z,63.74
2022-11-08T13:51:30.194Z,63.66
2022-11-08T13:54:04.789Z,63.79
2022-11-08T13:56:46.422Z,63.93
2022-11-08T13:59:38.775Z,64.11
2022-11-08T14:02:27.105Z,64.22
2022-11-08T14:04:58.403Z,64.51
2022-11-08T14:07:44.031Z,64.54
2022-11-08T14:10:24.008Z,64.71
2022-11-08T14:13:17.914Z,64.80
2022-11-08T14:16:02.784Z,65.02
2022-11-08T14:18:33.768Z,65.17
2022-11-08T14:21:04.917Z,65.22
2022-11-08T14:23:39.873Z,65.24
2022-11-08T14:26:21.479Z,65.41
2022-11-08T14:28:50.918Z,65.70
2022-11-08T14:31:29.978Z,65.61
2022-11-08T14:33:59.877Z,65.66
2022-11-08T14:36:30.576Z,65.69
2022-11-08T14:39:15.217Z,65.81
2022-11-08T14:41:50.280Z,65.92
2022-11-08T14:44:19.502Z,65.95
2022-11-08T14:46:48.576Z,66.05
2022-11-08T14:49:24.226Z,65.99
2022-11-08T14:52:23.135Z,66.09
2022-11-08T14:55:07.475Z,66.20
2022-11-08T14:57:45.069Z,66.29
2022-11-08T15:00:24.755Z,66.39
2022-11-08T15:02:57.757Z,66.52
2022-11-08T15:05:37.229Z,66.65
2022-11-08T15:08:28.528Z,66.79
2022-11-08T15:11:01.683Z,66.90
2022-11-08T15:13:39.909Z,67.01
2022-11-08T15:16:09.641Z,67.10
2022-11-08T15:18:43.012Z,67.19
2022-11-08T15:21:30.574Z,67.27
2022-11-08T15:24:11.454Z,67.34
2022-11-08T15:26:39.827Z,67.40
2022-11-08T15:29:19.567Z,67.50
2022-11-08T15:32:01.368Z,67.68
2022-11-08T15:34:39.126Z,67.88
2022-11-08T15:37:35.571Z,68.12
2022-11-08T15:40:19.931Z,68.34
2022-11-08T15:42:51.395Z,68.48
2022-11-08T15:45:25.613Z,68.41
2022-11-08T15:48:03.767Z,68.52
2022-11-08T15:50:32.344Z,68.55
2022-11-08T15:53:03.137Z,68.72
2022-11-08T15:55:41.795Z,68.87
2022-11-08T15:58:16.949Z,68.95
2022-11-08T16:00:48.039Z,69.02
2022-11-08T16:03:15.669Z,69.27
2022-11-08T16:05:43.350Z,69.46
2022-11-08T16:08:13.340Z,69.68
2022-11-08T16:10:44.444Z,69.94
2022-11-08T16:13:29.055Z,70.01
2022-11-08T16:15:58.758Z,70.33
2022-11-08T16:18:26.734Z,70.56
2022-11-08T16:20:54.673Z,70.80
2022-11-08T16:23:22.117Z,70.96
2022-11-08T16:25:54.125Z,71.14
2022-11-08T16:28:33.918Z,71.42
2022-11-08T16:31:09.437Z,71.67
2022-11-08T16:33:37.089Z,71.64
2022-11-08T16:36:24.101Z,71.77
2022-11-08T16:38:57.420Z,71.97
2022-11-08T16:41:26.402Z,72.20
2022-11-08T16:43:55.941Z,72.33
2022-11-08T16:46:23.744Z,72.51
2022-11-08T16:48:59.038Z,72.82
2022-11-08T16:51:26.812Z,72.97
2022-11-08T16:53:54.185Z,73.13
2022-11-08T16:56:21.858Z,73.10
2022-11-08T16:58:49.800Z,73.17
2022-11-08T17:01:21.895Z,73.29
2022-11-08T17:03:49.364Z,73.32
2022-11-08T17:06:18.372Z,73.49
2022-11-08T17:08:46.137Z,73.58
2022-11-08T17:11:21.451Z,73.78
2022-11-08T17:13:50.074Z,73.99
2022-11-08T17:16:18.311Z,74.17
2022-11-08T17:18:51.244Z,74.44
2022-11-08T17:21:43.266Z,74.51
2022-11-08T17:23:45.391Z,74.70
2022-11-08T17:26:12.783Z,74.90
2022-11-08T17:28:40.913Z,74.95
2022-11-08T17:31:13.127Z,75.00
2022-11-08T17:33:41.142Z,75.10
2022-11-08T17:36:12.349Z,75.20
2022-11-08T17:38:42.037Z,75.21
2022-11-08T17:41:14.678Z,75.27
2022-11-08T17:43:43.144Z,75.31
2022-11-08T17:46:11.768Z,75.42
2022-11-08T17:48:40.186Z,75.53
2022-11-08T17:51:08.996Z,75.65
2022-11-08T17:53:36.840Z,75.71
2022-11-08T17:56:06.262Z,75.89
2022-11-08T17:58:34.981Z,75.99
2022-11-08T18:01:05.809Z,76.14
2022-11-08T18:03:34.777Z,76.25
2022-11-08T18:06:06.692Z,76.36
2022-11-08T18:08:35.462Z,76.47
2022-11-08T18:11:03.739Z,76.56
2022-11-08T18:13:33.496Z,76.62
2022-11-08T18:16:13.950Z,76.68
2022-11-08T18:18:42.119Z,76.76
2022-11-08T18:21:10.578Z,76.81
2022-11-08T18:23:45.437Z,76.83
2022-11-08T18:26:18.065Z,76.93
2022-11-08T18:28:46.048Z,77.03
2022-11-08T18:31:17.183Z,77.07
2022-11-08T18:33:45.397Z,77.12
2022-11-08T18:36:19.963Z,77.18
2022-11-08T18:38:49.557Z,77.25
2022-11-08T18:41:21.806Z,77.32
2022-11-08T18:43:49.175Z,77.29
2022-11-08T18:46:24.501Z,77.31
2022-11-08T18:48:52.229Z,77.29
2022-11-08T18:51:22.535Z,77.21
2022-11-08T18:53:51.862Z,77.14
2022-11-08T18:56:20.080Z,77.16
2022-11-08T18:58:48.440Z,77.20
2022-11-08T19:01:16.626Z,77.27
2022-11-08T19:03:47.624Z,77.23
2022-11-08T19:06:28.439Z,77.27
2022-11-08T19:09:00.499Z,77.27
2022-11-08T19:11:32.110Z,77.25
2022-11-08T19:14:01.338Z,77.37
2022-11-08T19:16:32.955Z,77.45
2022-11-08T19:19:00.855Z,77.46
2022-11-08T19:21:28.763Z,77.53
2022-11-08T19:23:59.438Z,77.60
2022-11-08T19:26:36.171Z,77.69
2022-11-08T19:29:05.510Z,77.78
2022-11-08T19:31:42.102Z,77.83
2022-11-08T19:34:10.452Z,77.86
2022-11-08T19:36:45.603Z,77.94
2022-11-08T19:39:13.227Z,78.01
2022-11-08T19:41:41.363Z,77.99
2022-11-08T19:44:10.125Z,78.01
2022-11-08T19:46:38.571Z,78.02
2022-11-08T19:49:06.477Z,78.10
2022-11-08T19:51:35.042Z,78.10
2022-11-08T19:54:07.494Z,78.14
2022-11-08T19:59:07.350Z,78.23
2022-11-08T20:01:39.494Z,78.29
2022-11-08T20:04:11.051Z,78.37
2022-11-08T20:06:39.574Z,78.42
2022-11-08T20:09:09.125Z,78.48
2022-11-08T20:11:41.138Z,78.60
2022-11-08T20:14:12.481Z,78.67
2022-11-08T20:16:42.592Z,78.81
2022-11-08T20:19:14.107Z,78.91
2022-11-08T20:21:43.979Z,78.88
2022-11-08T20:24:14.021Z,78.95
2022-11-08T20:26:42.955Z,78.99
2022-11-08T20:29:10.759Z,79.05
2022-11-08T20:31:39.124Z,79.13
2022-11-08T20:34:10.085Z,79.21
2022-11-08T20:36:44.187Z,79.34
2022-11-08T20:39:14.604Z,79.42
2022-11-08T20:41:44.481Z,79.50
2022-11-08T20:44:12.599Z,79.52
2022-11-08T20:46:40.909Z,79.63
2022-11-08T20:49:09.282Z,79.67
2022-11-08T20:51:37.839Z,79.68
2022-11-08T20:54:05.734Z,79.75
2022-11-08T20:56:33.413Z,79.77
2022-11-08T20:59:01.690Z,79.86
2022-11-08T21:01:32.184Z,79.95
2022-11-08T21:04:00.637Z,79.98
2022-11-08T21:06:29.017Z,80.08
2022-11-08T21:09:04.837Z,80.21
2022-11-08T21:11:26.310Z,80.27
2022-11-08T21:13:54.102Z,80.38
2022-11-08T21:16:30.974Z,80.41
2022-11-08T21:18:51.659Z,80.46
2022-11-08T21:21:22.057Z,80.51
2022-11-08T21:23:53.961Z,80.59
2022-11-08T21:26:22.755Z,80.66
2022-11-08T21:28:51.692Z,80.63
2022-11-08T21:31:19.810Z,80.75
2022-11-08T21:33:47.903Z,80.70
2022-11-08T21:36:16.897Z,80.77
2022-11-08T21:38:45.231Z,80.80
2022-11-08T21:41:13.247Z,80.90
2022-11-08T21:43:43.594Z,80.97
2022-11-08T21:46:18.909Z,81.04
2022-11-08T21:48:47.394Z,81.05
2022-11-08T21:51:22.200Z,81.16
2022-11-08T21:53:55.964Z,81.23
2022-11-08T21:56:27.802Z,81.38
2022-11-08T21:58:55.782Z,81.43
2022-11-08T22:01:28.886Z,81.50
2022-11-08T22:03:54.030Z,81.53
2022-11-08T22:06:22.133Z,81.64
2022-11-08T22:08:50.042Z,81.70
2022-11-08T22:11:18.103Z,81.73
2022-11-08T22:13:46.069Z,81.85
2022-11-08T22:16:14.108Z,81.92
2022-11-08T22:19:03.645Z,81.96
2022-11-08T22:21:30.347Z,82.03
2022-11-08T22:23:58.271Z,82.03
2022-11-08T22:26:26.132Z,82.18
2022-11-08T22:28:54.068Z,82.17
2022-11-08T22:31:22.011Z,82.10
2022-11-08T22:33:49.900Z,82.17
2022-11-08T22:36:21.245Z,82.21
2022-11-08T22:38:48.941Z,82.27
2022-11-08T22:41:19.448Z,82.36
2022-11-08T22:43:47.900Z,82.38
2022-11-08T22:46:16.543Z,82.48
2022-11-08T22:48:45.236Z,82.55
2022-11-08T22:51:13.157Z,82.46
2022-11-08T22:53:41.019Z,82.56
2022-11-08T22:56:11.694Z,82.62
2022-11-08T22:58:40.329Z,82.58
2022-11-08T23:01:11.222Z,82.72
2022-11-08T23:03:39.369Z,82.79
2022-11-08T23:06:07.099Z,82.86
2022-11-08T23:08:35.099Z,82.82
2022-11-08T23:11:21.520Z,82.87
2022-11-08T23:14:08.349Z,82.88
2022-11-08T23:16:40.843Z,82.91
2022-11-08T23:19:34.190Z,82.92
2022-11-08T23:22:23.085Z,82.89
2022-11-08T23:24:51.067Z,82.92
2022-11-08T23:27:38.156Z,82.98
2022-11-08T23:30:25.881Z,83.04
2022-11-08T23:32:53.561Z,83.06
2022-11-08T23:35:21.541Z,83.10
2022-11-08T23:37:49.323Z,83.07
2022-11-08T23:40:37.241Z,83.07
2022-11-08T23:43:37.051Z,83.05
2022-11-08T23:46:08.150Z,83.02
2022-11-08T23:48:37.497Z,83.06
2022-11-08T23:51:06.255Z,83.08
2022-11-08T23:53:39.314Z,83.08
2022-11-08T23:56:07.176Z,83.08
2022-11-08T23:58:34.930Z,83.08
